Centralia, Illinois
Current Conditions -  °F | °C
As of 6:35 PM on Thursday 27 Nov 2014 (Local Time) from KENL Reporting Station
Clear Clear  
Wind Chill: 23°   Ceiling: Unl
Heat Index: 23°   Visibility: 10mi
Dew Point: 18°   Wind: 3mph
Humidity: 80%   Direction: 350°N
Pressure: 30.48"   Gusts: NA
Location:  38.53°N, 89.13°W
Report Text: KENL 280035Z AUTO 35003KT 10SM CLR M05/M08 A3048 RMK AO2 T10501080
Loading
Personal Weather Stations






























Interactive Weather Map New forecast layout! Learn more

10-Day Weather Forecast

Advertisements
Track Severe Weather on mobile